createdAt,value
2019-04-30T00:10:15.535Z,7.30
2019-04-30T00:15:20.220Z,6.53
2019-04-30T00:20:25.619Z,8.47
2019-04-30T00:25:31.144Z,7.33
2019-04-30T00:30:39.298Z,7.60
2019-04-30T00:35:49.691Z,6.47
2019-04-30T00:40:53.642Z,6.43
2019-04-30T00:45:58.078Z,7.23
2019-04-30T00:51:02.539Z,6.90
2019-04-30T00:56:06.985Z,7.67
2019-04-30T01:01:25.611Z,6.87
2019-04-30T01:06:31.451Z,6.23
2019-04-30T01:11:39.733Z,9.70
2019-04-30T01:16:41.877Z,5.40
2019-04-30T01:21:47.035Z,8.17
2019-04-30T01:26:52.294Z,7.00
2019-04-30T01:31:58.540Z,8.23
2019-04-30T01:37:02.971Z,8.40
2019-04-30T01:42:11.274Z,5.07
2019-04-30T01:47:13.371Z,8.93
2019-04-30T01:52:19.383Z,5.80
2019-04-30T01:57:29.291Z,7.40
2019-04-30T02:02:35.356Z,10.67
2019-04-30T02:07:40.402Z,8.47
2019-04-30T02:12:45.968Z,5.87
2019-04-30T02:17:50.551Z,7.40
2019-04-30T02:22:54.971Z,5.00
2019-04-30T02:27:59.544Z,6.10
2019-04-30T02:33:04.093Z,4.73
2019-04-30T02:38:10.182Z,4.30
2019-04-30T02:43:15.219Z,8.53
2019-04-30T02:48:21.873Z,7.73
2019-04-30T02:53:52.125Z,6.03
2019-04-30T02:58:56.566Z,6.57
2019-04-30T03:04:00.927Z,7.50
2019-04-30T03:09:06.483Z,6.70
2019-04-30T03:14:11.140Z,5.83
2019-04-30T03:19:19.505Z,5.97
2019-04-30T03:24:23.341Z,5.80
2019-04-30T03:29:30.060Z,5.33
2019-04-30T03:34:33.749Z,6.10
2019-04-30T03:39:40.031Z,7.13
2019-04-30T03:44:44.580Z,6.10
2019-04-30T03:49:49.937Z,7.13
2019-04-30T03:54:54.495Z,6.33
2019-04-30T03:59:59.467Z,6.83
2019-04-30T04:05:10.318Z,8.20
2019-04-30T04:10:19.515Z,5.80
2019-04-30T04:15:24.030Z,5.20
2019-04-30T04:20:29.907Z,8.17
2019-04-30T04:25:35.323Z,6.10
2019-04-30T04:30:42.901Z,9.80
2019-04-30T04:35:45.748Z,8.13
2019-04-30T04:40:50.472Z,7.62
2019-04-30T04:45:55.008Z,5.83
2019-04-30T04:51:00.279Z,6.40
2019-04-30T04:56:04.938Z,8.97
2019-04-30T05:01:11.812Z,5.87
2019-04-30T05:06:16.354Z,6.60
2019-04-30T05:11:20.765Z,8.27
2019-04-30T05:16:25.194Z,6.70
2019-04-30T05:21:41.431Z,5.37
2019-04-30T05:26:35.592Z,7.70
2019-04-30T05:31:39.988Z,4.80
2019-04-30T05:36:44.366Z,7.73
2019-04-30T05:41:49.168Z,5.27
2019-04-30T05:46:53.751Z,6.23
2019-04-30T05:51:59.379Z,6.17
2019-04-30T05:57:03.819Z,5.70
2019-04-30T06:02:08.825Z,7.37
2019-04-30T06:07:14.304Z,6.47
2019-04-30T06:12:20.448Z,9.10
2019-04-30T06:17:32.324Z,4.97
2019-04-30T06:22:38.535Z,9.47
2019-04-30T06:27:43.147Z,7.70
2019-04-30T06:32:49.483Z,10.83
2019-04-30T06:37:53.675Z,8.77
2019-04-30T06:43:00.537Z,5.70
2019-04-30T06:48:05.726Z,8.75
2019-04-30T06:53:10.112Z,9.17
2019-04-30T06:58:15.505Z,6.10
2019-04-30T07:03:20.035Z,6.73
2019-04-30T07:08:39.619Z,6.03
2019-04-30T07:13:39.517Z,5.43
2019-04-30T07:18:44.049Z,6.67
2019-04-30T07:23:48.610Z,7.60
2019-04-30T07:28:55.217Z,7.60
2019-04-30T07:33:59.588Z,8.27
2019-04-30T07:39:06.227Z,6.63
2019-04-30T07:44:12.959Z,6.83
2019-04-30T07:49:20.075Z,7.10
2019-04-30T07:54:23.854Z,7.30
2019-04-30T07:59:30.170Z,6.73
2019-04-30T08:04:35.975Z,7.87
2019-04-30T08:09:42.291Z,5.43
2019-04-30T08:14:49.446Z,6.37
2019-04-30T08:19:53.540Z,5.87
2019-04-30T08:24:58.673Z,6.20
2019-04-30T08:30:03.270Z,5.77
2019-04-30T08:35:09.886Z,7.30
2019-04-30T08:40:14.481Z,5.67
2019-04-30T08:45:19.741Z,7.23
2019-04-30T08:50:25.333Z,6.90
2019-04-30T08:55:30.399Z,8.70
2019-04-30T09:00:35.239Z,6.10
2019-04-30T09:05:41.245Z,7.83
2019-04-30T09:10:54.465Z,9.25
2019-04-30T09:15:59.424Z,8.00
2019-04-30T09:21:06.358Z,6.20
2019-04-30T09:26:11.043Z,8.83
2019-04-30T09:31:15.387Z,6.90
2019-04-30T09:36:20.871Z,8.07
2019-04-30T09:41:25.478Z,7.03
2019-04-30T09:46:30.138Z,6.63
2019-04-30T09:51:34.580Z,9.90
2019-04-30T09:56:39.378Z,6.83
2019-04-30T10:01:44.003Z,8.13
2019-04-30T10:06:50.111Z,6.80
2019-04-30T10:11:59.676Z,8.77
2019-04-30T10:17:05.826Z,10.00
2019-04-30T10:22:10.180Z,6.60
2019-04-30T10:27:14.738Z,9.93
2019-04-30T10:32:19.077Z,6.90
2019-04-30T10:37:23.443Z,6.80
2019-04-30T10:42:28.870Z,9.30
2019-04-30T10:47:33.463Z,7.03
2019-04-30T10:52:39.301Z,7.77
2019-04-30T10:57:43.872Z,9.23
2019-04-30T11:02:49.657Z,9.13
2019-04-30T11:07:54.139Z,9.13
2019-04-30T11:12:58.513Z,7.90
2019-04-30T11:18:03.206Z,7.30
2019-04-30T11:23:14.086Z,6.43
2019-04-30T11:28:14.240Z,8.30
2019-04-30T11:33:19.418Z,10.57
2019-04-30T11:38:24.065Z,6.97
2019-04-30T11:43:29.482Z,7.23
2019-04-30T11:48:33.970Z,8.57
2019-04-30T11:53:39.504Z,6.27
2019-04-30T11:58:43.890Z,9.83
2019-04-30T12:03:49.750Z,7.50
2019-04-30T12:09:01.994Z,7.17
2019-04-30T12:14:08.033Z,9.40
2019-04-30T12:19:12.375Z,7.73
2019-04-30T12:24:17.800Z,7.07
2019-04-30T12:29:22.159Z,8.70
2019-04-30T12:34:26.567Z,7.97
2019-04-30T12:39:30.946Z,9.03
2019-04-30T12:44:35.352Z,7.07
2019-04-30T12:50:00.890Z,7.20
2019-04-30T12:55:15.151Z,6.67
2019-04-30T13:00:14.300Z,9.77
2019-04-30T13:05:19.285Z,9.43
2019-04-30T13:10:24.272Z,8.93
2019-04-30T13:15:29.140Z,9.00
2019-04-30T13:20:33.629Z,8.27
2019-04-30T13:25:49.005Z,6.80
2019-04-30T13:30:44.195Z,8.43
2019-04-30T13:35:48.933Z,10.33
2019-04-30T13:41:11.642Z,10.30
2019-04-30T13:46:15.993Z,7.20
2019-04-30T13:51:20.346Z,8.00
2019-04-30T13:56:24.671Z,8.97
2019-04-30T14:01:29.502Z,7.27
2019-04-30T14:06:36.568Z,10.60
2019-04-30T14:11:40.958Z,7.90
2019-04-30T14:16:45.514Z,9.13
2019-04-30T14:21:50.037Z,6.93
2019-04-30T14:26:54.418Z,7.40
2019-04-30T14:31:58.896Z,8.50
2019-04-30T14:37:03.348Z,7.57
2019-04-30T14:42:10.981Z,8.00
2019-04-30T14:47:25.483Z,6.77
2019-04-30T14:52:32.248Z,11.23
2019-04-30T14:57:54.517Z,8.27
2019-04-30T15:03:00.974Z,7.23
2019-04-30T15:08:05.782Z,5.63
2019-04-30T15:13:10.140Z,6.20
2019-04-30T15:18:14.487Z,8.97
2019-04-30T15:23:29.643Z,8.47
2019-04-30T15:28:34.013Z,8.50
2019-04-30T15:33:40.005Z,6.03
2019-04-30T15:38:58.080Z,7.00
2019-04-30T15:44:02.507Z,7.53
2019-04-30T15:49:06.952Z,5.77
2019-04-30T15:54:11.474Z,5.20
2019-04-30T15:59:33.888Z,5.13
2019-04-30T16:04:43.025Z,5.37
2019-04-30T16:09:49.068Z,7.00
2019-04-30T16:14:53.364Z,6.23
2019-04-30T16:19:57.703Z,6.10
2019-04-30T16:25:02.153Z,7.50
2019-04-30T16:30:06.843Z,5.83
2019-04-30T16:35:11.531Z,7.07
2019-04-30T16:40:16.269Z,5.10
2019-04-30T16:45:20.943Z,7.27
2019-04-30T16:50:25.624Z,6.60
2019-04-30T16:55:30.108Z,6.13
2019-04-30T17:00:39.225Z,8.43
2019-04-30T17:05:49.891Z,7.17
2019-04-30T17:11:01.976Z,4.97
2019-04-30T17:16:11.320Z,5.90
2019-04-30T17:21:16.065Z,7.40
2019-04-30T17:26:20.599Z,6.17
2019-04-30T17:31:25.004Z,8.97
2019-04-30T17:36:29.815Z,6.33
2019-04-30T17:41:34.191Z,6.27
2019-04-30T17:46:38.610Z,7.47
2019-04-30T17:51:43.006Z,7.93
2019-04-30T17:56:48.223Z,9.73
2019-04-30T18:01:56.899Z,8.43
2019-04-30T18:07:01.338Z,7.23
2019-04-30T18:12:05.763Z,6.23
2019-04-30T18:17:10.192Z,8.30
2019-04-30T18:22:16.229Z,7.57
2019-04-30T18:27:23.722Z,7.53
2019-04-30T18:32:29.647Z,10.13
2019-04-30T18:37:34.165Z,10.03
2019-04-30T18:42:39.580Z,7.57
2019-04-30T18:47:44.210Z,9.10
2019-04-30T18:52:50.697Z,9.27
2019-04-30T18:57:56.721Z,11.03
2019-04-30T19:03:01.286Z,10.17
2019-04-30T19:08:09.679Z,10.13
2019-04-30T19:13:32.381Z,13.00
2019-04-30T19:18:41.300Z,11.50
2019-04-30T19:23:45.650Z,12.80
2019-04-30T19:28:50.088Z,10.60
2019-04-30T19:33:55.422Z,11.53
2019-04-30T19:38:59.884Z,12.33
2019-04-30T19:44:04.623Z,12.53
2019-04-30T19:49:09.815Z,12.53
2019-04-30T19:54:16.027Z,13.83
2019-04-30T19:59:20.590Z,12.00
2019-04-30T20:04:33.173Z,14.37
2019-04-30T20:09:31.647Z,11.47
2019-04-30T20:14:36.069Z,11.40
2019-04-30T20:19:40.419Z,12.50
2019-04-30T20:24:44.838Z,13.73
2019-04-30T20:29:51.714Z,12.57
2019-04-30T20:34:55.429Z,12.73
2019-04-30T20:40:01.470Z,13.13
2019-04-30T20:45:08.963Z,16.80
2019-04-30T20:50:13.039Z,12.03
2019-04-30T20:55:17.402Z,13.17
2019-04-30T21:00:21.769Z,12.63
2019-04-30T21:05:27.015Z,17.40
2019-04-30T21:10:31.501Z,16.23
2019-04-30T21:15:35.871Z,13.50
2019-04-30T21:20:40.290Z,14.00
2019-04-30T21:25:44.732Z,14.60
2019-04-30T21:30:49.123Z,15.60
2019-04-30T21:35:58.631Z,15.97
2019-04-30T21:41:03.215Z,16.43
2019-04-30T21:46:09.504Z,16.10
2019-04-30T21:51:14.048Z,17.53
2019-04-30T21:56:19.534Z,15.53
2019-04-30T22:01:25.675Z,18.47
2019-04-30T22:06:31.932Z,18.73
2019-04-30T22:11:37.105Z,17.10
2019-04-30T22:16:41.515Z,17.50
2019-04-30T22:21:46.687Z,19.53
2019-04-30T22:26:51.073Z,19.37
2019-04-30T22:31:55.480Z,18.93
2019-04-30T22:36:59.847Z,18.60
2019-04-30T22:42:30.090Z,20.17
2019-04-30T22:47:34.505Z,19.93
2019-04-30T22:52:38.978Z,21.37
2019-04-30T22:57:43.760Z,21.93
2019-04-30T23:03:05.093Z,21.97
2019-04-30T23:08:09.649Z,28.77
2019-04-30T23:13:14.191Z,22.27
2019-04-30T23:18:18.572Z,23.57
2019-04-30T23:23:22.967Z,21.50
2019-04-30T23:28:27.322Z,19.65
2019-04-30T23:33:31.820Z,19.00
2019-04-30T23:38:36.218Z,20.93
2019-04-30T23:43:40.658Z,19.93
2019-04-30T23:48:45.081Z,20.50
2019-04-30T23:53:49.442Z,17.27
2019-04-30T23:58:53.901Z,17.67
